Terminal Aerodrome Forecast
Issued by NWS

Home | Current Version | Previous Version | Text Only | Print | Product List | Glossary On
Versions: 1 2 3 4 5 6 7 8 9 10 11 12
000
FTAK31 PAJN 022300
TAFAYA
TAF
PAYA 022324Z 0300/0324 08008KT P6SM BKN150
     FM030500 08006KT P6SM BKN050 OVC100
     FM031000 08005KT P6SM -SNRA SCT020 BKN035 OVC060
     FM031500 10005KT 4SM -SNRA BKN025 OVC030
     FM031800 11006KT 6SM -RA BKN020 OVC040
     FM032100 VRB05KT P6SM -SHRA BKN025 OVC045
      AMD LTD TO CLD VIS AND WIND 0301/0310=

USA.gov is the U.S. government's official web portal to all federal, state and local government web resources and services.